• Join FlightAware (Why Join?)
  • Login
  • US Flag 
12:22PM EDT


 

Airport Tracker/Info


-or-


 

Live Flight TrackerFlight Track Log ✈ SWA407 ✈ 14-Apr-2013 ✈ KATL - KSFO

Flight Track Log - Related Links

Times and Time Zones

All times are in EDT time to prevent confusion due to time zone crossing. See the SWA407 flight status page for this flight to view local times or setup timezone preferences in your user account.

Time Position Orientation Groundspeed Altitude Reporting Facility
EDT Latitude Longitude Course Direction KTS MPH feet Rate Location/Type
05:36PM 33.6497 -84.3808 270° West 447 514 3,000  Level Atlanta Center
05:37PM 33.6667 -84.3258 70° East 322 371 4,600 1,680 Climbing Atlanta Center
05:38PM 33.7272 -84.2761 34° Northeast 244 281 6,400 2,580 Climbing Atlanta Center
05:39PM 33.8064 -84.3189 336° Northwest 342 394 9,800 2,760 Climbing Atlanta Center
05:40PM 33.8125 -84.4214 274° West 285 328 12,000 2,100 Climbing Atlanta Center
05:41PM 33.8142 -84.5314 271° West 290 334 14,100 2,760 Climbing Atlanta Center
05:42PM 33.8000 -84.6631 270° West  Level FlightAware Approximate
05:42PM 33.8117 -84.6389 268° West 325 374 17,600  Level Atlanta Center
05:43PM 33.8089 -84.7564 268° West 341 392 19,900 1,980 Climbing Atlanta Center
05:44PM 33.8058 -84.8839 268° West 363 418 21,600 1,740 Climbing Atlanta Center
05:45PM 33.7944 -85.0136 264° West 389 448 23,400 1,740 Climbing Atlanta Center
05:46PM 33.7767 -85.1433 261° West 394 453 25,100 1,740 Climbing Atlanta Center
05:47PM 33.7775 -85.2783 270° West 401 461 26,900 1,680 Climbing Atlanta Center
05:48PM 33.8011 -85.4186 281° West 424 488 28,500 1,560 Climbing Atlanta Center
05:49PM 33.8286 -85.5742 282° West 433 498 30,100 1,380 Climbing Atlanta Center
05:50PM 33.8600 -85.7125 285° West 426 490 31,300 1,620 Climbing Atlanta Center
05:51PM 33.9000 -85.8433 290° West 432 497 33,400 1,920 Climbing Atlanta Center
05:52PM 33.9419 -85.9744 291° West 427 491 35,200 1,260 Climbing Atlanta Center
05:53PM 33.9836 -86.1006 292° West 421 484 36,000 360 Climbing Atlanta Center
05:54PM 34.0189 -86.2292 288° West 409 471 36,000  Level Atlanta Center
05:55PM 34.0542 -86.3531 289° West 409 471 36,000  Level Atlanta Center
05:56PM 34.0894 -86.4844 288° West 409 471 36,000  Level Atlanta Center
05:57PM 34.1244 -86.6108 289° West 409 471 36,000  Level Atlanta Center
05:58PM 34.1317 -86.6383 288° West 409 471 36,000  Level Memphis Center
05:59PM 34.1667 -86.7650 288° West 409 471 36,000  Level Memphis Center
06:00PM 34.2064 -86.9164 288° West 420 483 36,000  Level Memphis Center
06:01PM 34.2433 -87.0456 289° West 422 486 36,000  Level Memphis Center
06:02PM 34.2800 -87.1747 289° West 418 481 36,000  Level Memphis Center
06:03PM 34.3119 -87.2869 289° West 412 474 36,000  Level Memphis Center
06:04PM 34.3486 -87.4164 289° West 407 468 36,000  Level Memphis Center
06:05PM 34.3872 -87.5583 288° West 407 468 36,000  Level Memphis Center
06:06PM 34.4217 -87.6908 288° West 407 468 36,000  Level Memphis Center
06:07PM 34.4575 -87.8181 289° West 407 468 36,000  Level Memphis Center
06:08PM 34.4914 -87.9481 288° West 407 468 36,000  Level Memphis Center
06:09PM 34.5253 -88.0783 288° West 407 468 36,000  Level Memphis Center
06:10PM 34.5608 -88.2083 288° West 408 470 36,000  Level Memphis Center
06:11PM 34.5944 -88.3389 287° West 408 470 36,000  Level Memphis Center
06:12PM 34.6300 -88.4692 288° West 408 470 36,000  Level Memphis Center
06:13PM 34.6631 -88.5922 288° West 395 455 36,000  Level Memphis Center
06:14PM 34.6961 -88.7228 287° West 400 460 36,000  Level Memphis Center
06:15PM 34.7247 -88.8383 287° West 405 466 36,000  Level Memphis Center
06:16PM 34.7597 -88.9719 288° West 405 466 36,000  Level Memphis Center
06:17PM 34.7944 -89.1053 288° West 411 473 36,000  Level Memphis Center
06:18PM 34.8292 -89.2339 288° West 411 473 36,000  Level Memphis Center
06:19PM 34.8614 -89.3675 286° West 417 480 36,000  Level Memphis Center
06:20PM 34.8981 -89.5014 288° West 417 480 36,000  Level Memphis Center
06:21PM 34.9342 -89.6325 289° West 417 480 36,000  Level Memphis Center
06:22PM 34.9767 -89.7717 290° West 424 488 36,000  Level Memphis Center
06:23PM 35.0294 -89.9006 297° West 434 499 36,000  Level Memphis Center
06:24PM 35.0778 -90.0272 295° West 421 484 36,000  Level Memphis Center
06:25PM 35.1281 -90.1592 295° West 421 484 36,000  Level Memphis Center
06:26PM 35.1742 -90.2833 294° West 413 475 36,000  Level Memphis Center
06:27PM 35.2158 -90.4156 291° West 413 475 36,000  Level Memphis Center
06:28PM 35.2575 -90.5553 290° West 408 470 36,000  Level Memphis Center
06:29PM 35.2969 -90.6828 291° West 408 470 36,000  Level Memphis Center
06:30PM 35.3342 -90.8100 290° West 408 470 36,000  Level Memphis Center
06:31PM 35.3711 -90.9350 290° West 408 470 36,000  Level Memphis Center
06:32PM 35.4081 -91.0653 289° West 402 463 36,000  Level Memphis Center
06:33PM 35.4469 -91.1878 291° West 402 463 36,000  Level Memphis Center
06:34PM 35.4814 -91.3183 288° West 407 468 36,000  Level Memphis Center
06:35PM 35.5139 -91.4283 290° West 401 461 36,000  Level Memphis Center
06:36PM 35.5503 -91.5539 290° West 401 461 36,000  Level Memphis Center
06:37PM 35.5844 -91.6794 289° West 390 449 36,000  Level Memphis Center
06:38PM 35.6186 -91.8025 289° West 390 449 36,000  Level Memphis Center
06:39PM 35.6525 -91.9258 289° West 385 443 36,000  Level Memphis Center
06:40PM 35.6864 -92.0517 288° West 385 443 36,000  Level Memphis Center
06:41PM 35.7222 -92.1700 290° West 385 443 36,000  Level Memphis Center
06:42PM 35.7539 -92.2908 288° West 380 437 36,000  Level Memphis Center
06:43PM 35.7872 -92.4119 289° West 380 437 36,000  Level Memphis Center
06:44PM 35.8208 -92.5306 289° West 380 437 36,000  Level Memphis Center
06:45PM 35.8561 -92.6492 290° West 380 437 36,000  Level Memphis Center
06:46PM 35.8872 -92.7681 288° West 374 430 36,000  Level Memphis Center
06:47PM 35.9203 -92.8894 289° West 368 423 36,000  Level Memphis Center
06:48PM 35.9514 -93.0058 288° West 368 423 36,000  Level Memphis Center
06:49PM 35.9822 -93.1197 289° West 368 423 36,000  Level Memphis Center
06:50PM 36.0108 -93.2361 287° West 368 423 36,000  Level Memphis Center
06:51PM 36.0433 -93.3553 289° West 368 423 36,000  Level Memphis Center
06:52PM 36.0739 -93.4694 288° West 368 423 36,000  Level Memphis Center
06:53PM 36.1064 -93.5864 289° West 363 418 36,000  Level Memphis Center
06:54PM 36.1347 -93.7006 287° West 363 418 36,000  Level Memphis Center
06:55PM 36.1650 -93.8172 288° West 363 418 36,000  Level Memphis Center
06:56PM 36.2028 -93.9475 290° West 369 425 36,000  Level Memphis Center
06:57PM 36.2308 -94.0644 287° West 364 419 36,000  Level Memphis Center
06:58PM 36.2669 -94.1794 291° West 364 419 36,000  Level Memphis Center
06:59PM 36.3008 -94.2944 290° West 364 419 36,000  Level Memphis Center
07:00PM 36.3569 -94.4678 292° West 350 403 36,000  Level Kansas City Center
07:01PM 36.3939 -94.5789 292° West 348 400 36,000  Level Kansas City Center
07:02PM 36.4272 -94.6908 290° West 346 398 36,000  Level Kansas City Center
07:03PM 36.4625 -94.8025 291° West 347 399 36,000  Level Kansas City Center
07:04PM 36.5044 -94.9369 291° West 348 400 36,000  Level Kansas City Center
07:05PM 36.5397 -95.0500 291° West 351 404 36,000  Level Kansas City Center
07:06PM 36.5714 -95.1539 291° West 349 402 36,000  Level Kansas City Center
07:08PM 36.6083 -95.2725 291° West 348 400 36,000  Level Kansas City Center
07:09PM 36.6428 -95.3833 291° West 347 399 36,000  Level Kansas City Center
07:10PM 36.6831 -95.5172 291° West 347 399 36,000  Level Kansas City Center
07:11PM 36.7169 -95.6289 291° West 347 399 36,000  Level Kansas City Center
07:12PM 36.7508 -95.7414 291° West 347 399 36,000  Level Kansas City Center
07:13PM 36.7847 -95.8542 291° West 348 400 36,000  Level Kansas City Center
07:14PM 36.8194 -95.9689 291° West 352 405 36,000  Level Kansas City Center
07:15PM 36.8494 -96.0836 288° West 350 403 36,000  Level Kansas City Center
07:16PM 36.8786 -96.2253 284° West 351 404 36,000  Level Kansas City Center
07:17PM 36.9031 -96.3431 285° West 349 402 36,000  Level Kansas City Center
07:18PM 36.9283 -96.4586 285° West 346 398 36,000  Level Kansas City Center
07:19PM 36.9517 -96.5753 284° West 345 397 36,000  Level Kansas City Center
07:20PM 36.9756 -96.6906 285° West 343 395 36,000 180 Level Kansas City Center
07:21PM 37.0017 -96.8100 285° West 346 398 36,400 780 Climbing Kansas City Center
07:22PM 37.0247 -96.9258 284° West 344 396 37,700 720 Climbing Kansas City Center
07:23PM 37.0483 -97.0389 285° West 338 389 38,000 120 Climbing Kansas City Center
07:24PM 37.0700 -97.1544 283° West 340 391 38,000  Level Kansas City Center
07:25PM 37.0978 -97.2944 284° West 343 395 38,000  Level Kansas City Center
07:26PM 37.1214 -97.4075 285° West 339 390 38,000  Level Kansas City Center
07:27PM 37.1439 -97.5258 283° West 344 396 38,000  Level Kansas City Center
07:28PM 37.1661 -97.6406 284° West 342 394 38,000  Level Kansas City Center
07:29PM 37.1894 -97.7567 284° West 341 392 38,000  Level Kansas City Center
07:30PM 37.2122 -97.8728 284° West 341 392 38,000  Level Kansas City Center
07:31PM 37.2347 -97.9875 284° West 339 390 38,000  Level Kansas City Center
07:32PM 37.2569 -98.1042 283° West 341 392 38,000  Level Kansas City Center
07:33PM 37.2842 -98.2458 284° West 344 396 38,000  Level Kansas City Center
07:34PM 37.3056 -98.3631 283° West 344 396 38,000  Level Kansas City Center
07:35PM 37.3286 -98.4814 284° West 345 397 38,000  Level Kansas City Center
07:36PM 37.3500 -98.5983 283° West 345 397 38,000  Level Kansas City Center
07:37PM 37.3728 -98.7164 284° West 346 398 38,000  Level Kansas City Center
07:38PM 37.3936 -98.8331 283° West 344 396 38,000  Level Kansas City Center
07:39PM 37.4156 -98.9492 283° West 342 394 38,000  Level Kansas City Center
07:41PM 37.4372 -99.0669 283° West 344 396 38,000  Level Kansas City Center
07:42PM 37.4642 -99.2111 283° West 349 402 38,000  Level Kansas City Center
07:43PM 37.4864 -99.3300 283° West 350 403 38,000  Level Kansas City Center
07:44PM 37.5083 -99.4497 283° West 349 402 38,000  Level Kansas City Center
07:45PM 37.5272 -99.5656 282° West 350 403 38,000  Level Kansas City Center
07:46PM 37.5508 -99.6992 283° West 349 402 38,000  Level Kansas City Center
07:47PM 37.5733 -99.8156 284° West 356 410 38,000  Level Kansas City Center
07:48PM 37.5975 -99.9506 283° West 354 407 38,000  Level Kansas City Center
07:49PM 37.6172 -100.0658 282° West 353 406 38,000  Level Kansas City Center
07:50PM 37.6394 -100.1997 282° West 351 404 38,000  Level Kansas City Center
07:51PM 37.6589 -100.3133 282° West 348 400 38,000  Level Kansas City Center
07:52PM 37.6819 -100.4453 282° West 346 398 38,000  Level Kansas City Center
07:53PM 37.7022 -100.5639 282° West 343 395 38,000  Level Kansas City Center
07:54PM 37.7225 -100.6817 282° West 342 394 38,000  Level Kansas City Center
07:55PM 37.7417 -100.8000 282° West 342 394 38,000  Level Kansas City Center
07:56PM 37.7603 -100.9178 281° West 341 392 38,000  Level Kansas City Center
07:57PM 37.7808 -101.0389 282° West 342 394 38,000  Level Kansas City Center
07:58PM 37.8031 -101.1714 282° West 346 398 38,000  Level Kansas City Center
07:59PM 37.8217 -101.2853 282° West 346 398 38,000  Level Kansas City Center
08:00PM 37.8400 -101.3997 282° West 348 400 38,000  Level Kansas City Center
08:01PM 37.8622 -101.5333 282° West 349 402 38,000  Level Kansas City Center
08:02PM 37.8800 -101.6481 281° West 347 399 38,000  Level Kansas City Center
08:03PM 37.8931 -101.7239 282° West 344 396 38,000  Level Denver Center
08:04PM 37.9142 -101.8561 281° West 344 396 38,000  Level Denver Center
08:05PM 37.9308 -101.9689 281° West 343 395 38,000  Level Denver Center
08:06PM 37.9497 -102.0808 282° West 343 395 38,000  Level Denver Center
08:07PM 37.9694 -102.2133 281° West 344 396 38,000  Level Denver Center
08:08PM 37.9864 -102.3256 281° West 342 394 38,000  Level Denver Center
08:09PM 38.0061 -102.4581 281° West 344 396 38,000  Level Denver Center
08:10PM 38.0211 -102.5722 280° West 344 396 38,000  Level Denver Center
08:11PM 38.0389 -102.7056 280° West 346 398 38,000  Level Denver Center
08:12PM 38.0547 -102.8183 280° West 342 394 38,000  Level Denver Center
08:13PM 38.0725 -102.9519 280° West 345 397 38,000  Level Denver Center
08:14PM 38.0892 -103.0661 281° West 344 396 38,000  Level Denver Center
08:15PM 38.1058 -103.1978 279° West 343 395 38,000  Level Denver Center
08:16PM 38.1203 -103.3100 279° West 340 391 38,000  Level Denver Center
08:17PM 38.1350 -103.4228 279° West 339 390 38,000  Level Denver Center
08:18PM 38.1514 -103.5525 279° West 334 384 38,000  Level Denver Center
08:19PM 38.1664 -103.6639 280° West 336 387 38,000  Level Denver Center
08:20PM 38.1828 -103.7944 279° West 335 386 38,000  Level Denver Center
08:21PM 38.1972 -103.9069 279° West 339 390 38,000  Level Denver Center
08:22PM 38.2133 -104.0422 279° West 347 399 38,000  Level Denver Center
08:23PM 38.2281 -104.1600 279° West 352 405 38,000  Level Denver Center
08:24PM 38.2458 -104.2994 279° West 358 412 38,000  Level Denver Center
08:25PM 38.2597 -104.4200 278° West 361 415 38,000  Level Denver Center
08:26PM 38.2769 -104.5619 279° West 365 420 38,000  Level Denver Center
08:27PM 38.2919 -104.6858 279° West 368 423 38,000  Level Denver Center
08:28PM 38.3083 -104.8281 278° West 365 420 38,000  Level Denver Center
08:29PM 38.3233 -104.9514 279° West 367 422 38,000  Level Denver Center
08:31PM 38.3383 -105.0744 279° West 367 422 38,000  Level Denver Center
08:32PM 38.3469 -105.2042 275° West 364 419 38,000  Level Denver Center
08:33PM 38.3572 -105.3550 275° West 363 418 38,000  Level Denver Center
08:34PM 38.3661 -105.4836 275° West 363 418 38,000  Level Denver Center
08:35PM 38.3733 -105.6139 274° West 364 419 38,000  Level Denver Center
08:36PM 38.3808 -105.7431 274° West 362 417 38,000  Level Denver Center
08:37PM 38.3897 -105.8700 275° West 361 415 38,000  Level Denver Center
08:38PM 38.3978 -106.0131 274° West 364 419 38,000  Level Denver Center
08:39PM 38.4050 -106.1369 274° West 367 422 38,000  Level Denver Center
08:40PM 38.4125 -106.2725 274° West 375 432 38,000  Level Denver Center
08:41PM 38.4186 -106.4028 273° West 367 422 38,000  Level Denver Center
08:42PM 38.4256 -106.5311 274° West 363 418 38,000  Level Denver Center
08:43PM 38.4314 -106.6331 274° West 361 415 38,000  Level Denver Center
08:44PM 38.4389 -106.7817 274° West 351 404 38,000  Level Denver Center
08:45PM 38.4450 -106.9058 274° West 350 403 38,000  Level Denver Center
08:46PM 38.4461 -107.0558 271° West 350 403 38,000  Level Denver Center
08:47PM 38.4475 -107.1825 271° West 355 409 38,000  Level Denver Center
08:48PM 38.4481 -107.3006 270° West 354 407 38,000  Level Denver Center
08:49PM 38.4497 -107.4425 271° West 359 413 38,000  Level Denver Center
08:50PM 38.4500 -107.5622 270° West 356 410 38,000  Level Denver Center
08:51PM 38.4511 -107.7006 271° West 350 403 38,000  Level Denver Center
08:52PM 38.4514 -107.8189 270° West 348 400 38,000  Level Denver Center
08:53PM 38.4519 -107.9583 270° West 350 403 38,000  Level Denver Center
08:54PM 38.4531 -108.0775 271° West 350 403 38,000  Level Denver Center
08:55PM 38.4531 -108.1997 270° West 357 411 38,000  Level Denver Center
08:56PM 38.4531 -108.3381 270° West 351 404 38,000  Level Denver Center
08:57PM 38.4536 -108.4575 270° West 351 404 38,000  Level Denver Center
08:58PM 38.4531 -108.5992 270° West 357 411 38,000  Level Denver Center
08:59PM 38.4528 -108.7219 270° West 361 415 38,000  Level Denver Center
09:00PM 38.4522 -108.8631 270° West 357 411 38,000  Level Denver Center
09:01PM 38.4514 -108.9853 270° West 359 413 38,000  Level Denver Center
09:02PM 38.4506 -109.1069 270° West 359 413 38,000  Level Denver Center
09:03PM 38.4497 -109.2503 270° West 362 417 38,000  Level Denver Center
09:05PM 38.4483 -109.3731 269° West 361 415 38,000  Level Denver Center
09:06PM 38.4472 -109.5178 269° West 364 419 38,000  Level Denver Center
09:07PM 38.4458 -109.6411 269° West 364 419 38,000  Level Denver Center
09:08PM 38.4447 -109.7650 269° West 365 420 38,000  Level Denver Center
09:09PM 38.4425 -109.9106 269° West 366 421 38,000  Level Denver Center
09:10PM 38.4400 -110.0353 269° West 366 421 38,000  Level Denver Center
09:10PM 38.4406 -110.1394 270° West 364 419 38,000  Level Salt Lake Center
09:11PM 38.4394 -110.2850 269° West 364 419 38,000  Level Salt Lake Center
09:12PM 38.4361 -110.4092 268° West 365 420 38,000  Level Salt Lake Center
09:13PM 38.4342 -110.4489 266° West 366 421 38,000  Level Denver Center
09:14PM 38.4322 -110.5719 269° West 363 418 38,000  Level Denver Center
09:15PM 38.4311 -110.6786 269° West 368 423 38,000  Level Salt Lake Center
09:16PM 38.4289 -110.8028 269° West 368 423 38,000  Level Salt Lake Center
09:17PM 38.4256 -110.9450 268° West 362 417 38,000  Level Salt Lake Center
09:18PM 38.4233 -111.0708 269° West 358 412 38,000  Level Salt Lake Center
09:19PM 38.4203 -111.1978 268° West 358 412 38,000  Level Salt Lake Center
09:20PM 38.4175 -111.3247 268° West 359 413 38,000  Level Salt Lake Center
09:21PM 38.4125 -111.4506 267° West 358 412 38,000  Level Salt Lake Center
09:22PM 38.4108 -111.5764 269° West 355 409 38,000  Level Salt Lake Center
09:23PM 38.4069 -111.7011 268° West 354 407 38,000  Level Salt Lake Center
09:24PM 38.4025 -111.8283 267° West 359 413 38,000  Level Salt Lake Center
09:25PM 38.3978 -111.9828 268° West 363 418 38,000  Level Salt Lake Center
09:26PM 38.3939 -112.1103 268° West 361 415 38,000  Level Salt Lake Center
09:27PM 38.3892 -112.2389 267° West 364 419 38,000  Level Salt Lake Center
09:28PM 38.3850 -112.3644 268° West 359 413 38,000  Level Salt Lake Center
09:29PM 38.3806 -112.4939 268° West 365 420 38,000  Level Salt Lake Center
09:30PM 38.3756 -112.6239 267° West 369 425 38,000  Level Salt Lake Center
09:31PM 38.3708 -112.7508 267° West 363 418 38,000  Level Salt Lake Center
09:32PM 38.3664 -112.8783 267° West 362 417 38,000  Level Salt Lake Center
09:33PM 38.3600 -113.0294 267° West 360 414 38,000  Level Salt Lake Center
09:34PM 38.3503 -113.1550 264° West 359 413 38,000  Level Salt Lake Center
09:35PM 38.3406 -113.2822 264° West 361 415 38,000  Level Salt Lake Center
09:36PM 38.3306 -113.4106 264° West 365 420 38,000  Level Salt Lake Center
09:37PM 38.3214 -113.5425 265° West 371 427 38,000  Level Salt Lake Center
09:38PM 38.3106 -113.6722 264° West 370 426 38,000  Level Salt Lake Center
09:39PM 38.3003 -113.8006 264° West 368 423 38,000  Level Salt Lake Center
09:40PM 38.2897 -113.9292 264° West 368 423 38,000  Level Salt Lake Center
09:41PM 38.2767 -114.0803 264° West 361 415 38,000  Level Salt Lake Center
09:42PM 38.2664 -114.2094 264° West 366 421 38,000  Level Salt Lake Center
09:43PM 38.2544 -114.3422 264° West 375 432 38,000  Level Salt Lake Center
09:44PM 38.2464 -114.4719 266° West 373 429 38,000  Level Salt Lake Center
09:45PM 38.2428 -114.6003 268° West 366 421 38,000  Level Salt Lake Center
09:46PM 38.2378 -114.7272 267° West 360 414 38,000  Level Salt Lake Center
09:47PM 38.2339 -114.8517 268° West 355 409 38,000  Level Salt Lake Center
09:48PM 38.2281 -114.9797 267° West 360 414 38,000  Level Salt Lake Center
09:49PM 38.2233 -115.1300 268° West 357 411 38,000  Level Salt Lake Center
09:50PM 38.2175 -115.2575 267° West 361 415 38,000  Level Salt Lake Center
09:51PM 38.2131 -115.3656 267° West 354 407 38,000  Level Salt Lake Center
09:52PM 38.2075 -115.5192 267° West 361 415 38,000  Level Salt Lake Center
09:53PM 38.2017 -115.6469 267° West 362 417 38,000  Level Salt Lake Center
09:54PM 38.1958 -115.7742 267° West 361 415 38,000  Level Salt Lake Center
09:55PM 38.1903 -115.8994 267° West 355 409 38,000  Level Salt Lake Center
09:56PM 38.1842 -116.0267 267° West 359 413 38,000  Level Salt Lake Center
09:57PM 38.1781 -116.1522 266° West 358 412 38,000  Level Salt Lake Center
09:58PM 38.1719 -116.2792 267° West 360 414 38,000  Level Salt Lake Center
09:59PM 38.1667 -116.4081 267° West 365 420 38,000  Level Oakland Center
10:01PM 38.1597 -116.5383 266° West 369 425 38,000  Level Oakland Center
10:02PM 38.1528 -116.6667 266° West 366 421 38,000  Level Oakland Center
10:03PM 38.1458 -116.7950 266° West 365 420 38,000  Level Oakland Center
10:04PM 38.1375 -116.9478 266° West 360 414 38,000  Level Salt Lake Center
10:05PM 38.1311 -117.0736 266° West 357 411 38,000  Level Salt Lake Center
10:06PM 38.1244 -117.1917 266° West 363 418 38,000  Level Oakland Center
10:07PM 38.1081 -117.3203 261° West 365 420 38,000  Level Oakland Center
10:08PM 38.0800 -117.4431 254° West 372 428 38,000  Level Oakland Center
10:09PM 38.0514 -117.5650 253° West 362 417 38,000  Level Oakland Center
10:10PM 38.0233 -117.6878 254° West 362 417 38,000  Level Oakland Center
10:11PM 37.9953 -117.8372 257° West 364 419 38,000  Level Oakland Center
10:12PM 37.9833 -117.9631 263° West 361 415 38,000  Level Oakland Center
10:13PM 37.9692 -118.0900 262° West 363 418 38,000  Level Oakland Center
10:14PM 37.9561 -118.2189 263° West 367 422 38,000  Level Oakland Center
10:15PM 37.9425 -118.3461 262° West 366 421 38,000  Level Oakland Center
10:16PM 37.9275 -118.4731 262° West 364 419 38,000  Level Oakland Center
10:17PM 37.9136 -118.6000 262° West 365 420 38,000  Level Oakland Center
10:18PM 37.8994 -118.7275 262° West 364 419 38,000  Level Oakland Center
10:19PM 37.8864 -118.8528 263° West 361 415 38,000  Level Oakland Center
10:20PM 37.8719 -118.9789 262° West 362 417 38,000  Level Oakland Center
10:21PM 37.8572 -119.1000 261° West 361 415 38,000  Level Oakland Center
10:22PM 37.8392 -119.2544 262° West 368 423 38,000  Level Oakland Center
10:23PM 37.8236 -119.3842 261° West 373 429 38,000  Level Oakland Center
10:24PM 37.8086 -119.5117 262° West 368 423 38,000  Level Oakland Center
10:25PM 37.7939 -119.6394 262° West 368 423 38,000 -180 Level Oakland Center
10:26PM 37.7778 -119.7669 261° West 369 425 37,700 -600 Descending Oakland Center
10:27PM 37.7622 -119.8978 261° West 372 428 36,800 -1,020 Descending Oakland Center
10:28PM 37.7456 -120.0297 261° West 378 435 35,700 -1,080 Descending Oakland Center
10:29PM 37.7294 -120.1589 261° West 373 429 34,700 -960 Descending Oakland Center
10:30PM 37.7139 -120.2872 261° West 370 426 33,800 -1,020 Descending Oakland Center
10:31PM 37.6978 -120.4203 261° West 380 437 32,700 -1,680 Descending Oakland Center
10:32PM 37.6806 -120.5519 261° West 379 436 30,400 -2,280 Descending Oakland Center
10:33PM 37.6642 -120.6781 261° West 365 420 28,100 -2,220 Descending Oakland Center
10:34PM 37.6486 -120.7997 261° West 353 406 26,000 -2,100 Descending Oakland Center
10:35PM 37.6325 -120.9158 260° West 339 390 23,900 -1,980 Descending Oakland Center
10:36PM 37.6194 -121.0275 262° West 323 372 22,000 -1,920 Descending Oakland Center
10:37PM 37.6083 -121.1322 262° West 306 352 20,000 -2,280 Descending Oakland Center
10:38PM 37.5944 -121.2444 261° West 286 329 17,400 -2,280 Descending Oakland Center
10:39PM 37.5842 -121.3411 262° West 279 321 15,400 -1,740 Descending Oakland Center
10:40PM 37.5725 -121.4361 261° West 276 318 13,900 -1,440 Descending Oakland Center
10:41PM 37.5625 -121.5261 262° West 264 304 12,500 -1,380 Descending Oakland Center
10:42PM 37.5506 -121.6167 261° West 262 302 11,100 -1,140 Descending Oakland Center
10:43PM 37.5500 -121.6500 269° West 257 296 11,000 -600 Descending Northern Cal TRACON
10:43PM 37.5167 -121.7167 238° Southwest 227 261 10,400 -900 Descending Northern Cal TRACON
10:44PM 37.5000 -121.7833 253° West 219 252 9,300 -1,260 Descending Northern Cal TRACON
10:45PM 37.4667 -121.8500 238° Southwest 221 254 8,100 -720 Descending Northern Cal TRACON
10:46PM 37.4500 -121.9167 253° West 206 237 8,000 -540 Descending Northern Cal TRACON
10:47PM 37.4500 -121.9833 270° West 177 204 7,100 -840 Descending Northern Cal TRACON
10:48PM 37.4667 -122.0333 293° West 152 175 6,400 -840 Descending Northern Cal TRACON
10:49PM 37.4833 -122.0667 302° West 141 162 5,500 -1,080 Descending Northern Cal TRACON
10:50PM 37.5167 -122.1167 310° West 152 175 4,300 -1,020 Descending Northern Cal TRACON
10:51PM 37.5333 -122.1667 293° West 150 173 3,500 -780 Descending Northern Cal TRACON
10:52PM 37.5500 -122.2000 302° West 142 163 2,800 -720 Descending Northern Cal TRACON
10:53PM 37.5631 -122.2472 289° West 144 166 2,000 -720 Descending Oakland Center
10:54PM 37.5794 -122.2853 299° West 135 155 1,300 -600 Descending Oakland Center
10:55PM 37.5906 -122.3147 295° West 121 139 800 -600 Descending Oakland Center
10:56PM 37.6061 -122.3503 299° West 117 135 100 -720 Descending Oakland Center
10:58PM 37.6167 -122.3667 322° Northwest  Level FlightAware Approximate
11:05PM 37.6191 -122.3752 322° Northwest  Level Estimated